Time;durP1;ratioP1;P1;durP2;ratioP2;P2;SDS_P1;SDS_P2;PMS_P1;PMS_P2;Temp;Humidity;BMP_temperature;BMP_pressure;BME280_temperature;BME280_humidity;BME280_pressure;Samples;Min_cycle;Max_cycle;Signal;HPM_P1;HPM_P2
2021/05/17 00:00:46;;;;;;;;;;;10.70;91.80;;;;;;5087129;28;20122;-66
2021/05/17 00:03:12;;;;;;;2.72;0.30;;;10.80;91.70;;;;;;5087086;28;19908;-66
2021/05/17 00:05:38;;;;;;;4.78;0.40;;;10.80;91.70;;;;;;5085498;28;20434;-66
2021/05/17 00:08:04;;;;;;;;;;;10.80;91.80;;;;;;5087298;28;20020;-67
2021/05/17 00:10:31;;;;;;;12.48;0.47;;;10.80;91.80;;;;;;5084785;28;19908;-65
2021/05/17 00:12:57;;;;;;;2.60;0.38;;;10.80;91.70;;;;;;5086780;28;20031;-66
2021/05/17 00:15:23;;;;;;;;;;;10.90;91.70;;;;;;5086793;28;20407;-66
2021/05/17 00:17:49;;;;;;;3.92;0.40;;;10.90;91.60;;;;;;5086869;28;20265;-66
2021/05/17 00:20:16;;;;;;;;;;;10.90;91.60;;;;;;5086542;28;20539;-66
2021/05/17 00:22:43;;;;;;;2.28;0.60;;;10.90;91.70;;;;;;5085301;28;19997;-69
2021/05/17 00:25:10;;;;;;;1.73;0.60;;;10.90;91.70;;;;;;5085190;28;20035;-66
2021/05/17 00:27:36;;;;;;;6.13;0.77;;;10.90;91.70;;;;;;5086188;28;20168;-66
2021/05/17 00:30:04;;;;;;;;;;;10.90;91.50;;;;;;5087210;28;20043;-66
2021/05/17 00:32:29;;;;;;;;;;;11.00;91.40;;;;;;5086817;28;20440;-67
2021/05/17 00:34:56;;;;;;;3.13;0.70;;;11.00;91.30;;;;;;5086500;28;19908;-66
2021/05/17 00:37:22;;;;;;;2.38;0.45;;;11.00;91.40;;;;;;5086389;28;20028;-67
2021/05/17 00:39:48;;;;;;;;;;;11.00;91.40;;;;;;5085620;28;20020;-66
2021/05/17 00:42:14;;;;;;;7.63;0.68;;;11.00;91.40;;;;;;5086373;28;20602;-66
2021/05/17 00:44:41;;;;;;;7.32;0.77;;;11.00;91.30;;;;;;5085851;28;20102;-67
2021/05/17 00:47:15;;;;;;;4.88;0.50;;;11.10;91.00;;;;;;5086110;28;20055;-67
2021/05/17 00:49:42;;;;;;;3.95;0.45;;;11.20;91.00;;;;;;5086187;28;20058;-67
2021/05/17 00:52:10;;;;;;;2.20;0.57;;;11.30;90.40;;;;;;5085925;28;20255;-67
2021/05/17 00:54:36;;;;;;;2.58;0.40;;;11.30;90.30;;;;;;5085992;28;20493;-66
2021/05/17 00:57:04;;;;;;;6.13;0.50;;;11.30;90.40;;;;;;5086748;28;20111;-66
2021/05/17 00:59:30;;;;;;;1.58;0.63;;;11.30;90.50;;;;;;5090474;28;20149;-66
2021/05/17 01:01:56;;;;;;;1.55;0.40;;;11.20;90.50;;;;;;5090059;28;20035;-68
2021/05/17 01:04:22;;;;;;;;;;;11.10;90.70;;;;;;5090420;28;20020;-67
2021/05/17 01:06:51;;;;;;;2.47;0.80;;;11.00;90.80;;;;;;5090024;28;19911;-66
2021/05/17 01:09:17;;;;;;;4.25;0.47;;;10.90;90.90;;;;;;5090236;28;20103;-67
2021/05/17 01:11:43;;;;;;;;;;;10.80;91.10;;;;;;5090669;28;20533;-67
2021/05/17 01:14:09;;;;;;;6.88;0.60;;;10.70;91.40;;;;;;5089843;28;19904;-67
2021/05/17 01:16:36;;;;;;;1.38;0.40;;;10.60;91.60;;;;;;5088636;28;20520;-66
2021/05/17 01:19:11;;;;;;;0.95;0.60;;;10.60;91.90;;;;;;5089823;28;20038;-67
2021/05/17 01:21:39;;;;;;;2.85;0.50;;;10.50;92.00;;;;;;5089685;28;20028;-67
2021/05/17 01:24:06;;;;;;;2.65;1.17;;;10.70;91.90;;;;;;5089859;28;20032;-66
2021/05/17 01:26:34;;;;;;;1.65;0.50;;;10.80;91.90;;;;;;5089390;28;20028;-67
2021/05/17 01:29:03;;;;;;;9.25;0.65;;;10.90;91.90;;;;;;5089881;28;20020;-66
2021/05/17 01:31:29;;;;;;;7.95;0.60;;;11.00;92.10;;;;;;5088326;28;20052;-66
2021/05/17 01:33:55;;;;;;;;;;;11.10;92.30;;;;;;5089980;28;20282;-67
2021/05/17 01:36:21;;;;;;;1.10;0.50;;;11.30;92.10;;;;;;5089679;28;20004;-67
2021/05/17 01:38:51;;;;;;;1.05;0.50;;;11.40;91.90;;;;;;5089246;28;20023;-65
2021/05/17 01:41:20;;;;;;;8.60;0.73;;;11.60;91.30;;;;;;5089610;28;20032;-66
2021/05/17 01:43:55;;;;;;;12.90;1.88;;;11.80;90.70;;;;;;5089051;28;20024;-66
2021/05/17 01:46:29;;;;;;;3.97;0.40;;;11.90;90.50;;;;;;5089079;28;20051;-66
2021/05/17 01:48:56;;;;;;;2.47;0.40;;;12.00;90.20;;;;;;5089210;28;20408;-66
2021/05/17 01:51:23;;;;;;;6.15;0.90;;;12.00;90.30;;;;;;5088824;28;20027;-67
2021/05/17 01:53:50;;;;;;;1.58;0.57;;;11.90;90.60;;;;;;5088854;28;20024;-66
2021/05/17 01:56:18;;;;;;;1.30;0.55;;;12.00;90.60;;;;;;5089410;28;20020;-66
2021/05/17 01:58:44;;;;;;;5.78;1.85;;;12.10;90.30;;;;;;5089131;28;20101;-67
2021/05/17 02:01:11;;;;;;;;;;;12.10;90.30;;;;;;5089569;28;20064;-67
2021/05/17 02:03:39;;;;;;;4.35;0.38;;;12.20;90.20;;;;;;5088557;28;19922;-67
2021/05/17 02:06:06;;;;;;;0.93;0.50;;;12.20;90.20;;;;;;5089089;28;20060;-67
2021/05/17 02:08:33;;;;;;;4.25;0.65;;;12.10;90.40;;;;;;5088144;28;20043;-66
2021/05/17 02:11:00;;;;;;;4.32;0.50;;;12.10;90.60;;;;;;5088906;28;20040;-67
2021/05/17 02:13:27;;;;;;;8.98;0.70;;;12.00;90.60;;;;;;5088946;28;20020;-66
2021/05/17 02:15:53;;;;;;;6.32;0.73;;;12.10;90.80;;;;;;5088550;28;20042;-67
2021/05/17 02:18:19;;;;;;;;;;;12.10;91.00;;;;;;5089295;28;20058;-67
2021/05/17 02:20:45;;;;;;;3.85;0.68;;;12.10;90.60;;;;;;5054358;28;20009;-66
2021/05/17 02:23:14;;;;;;;8.35;0.80;;;12.20;90.20;;;;;;5052164;28;20051;-67
2021/05/17 02:25:41;;;;;;;4.70;0.70;;;12.20;90.00;;;;;;5053907;28;20075;-67
2021/05/17 02:28:07;;;;;;;1.65;0.68;;;12.30;90.10;;;;;;5046911;28;20024;-67
2021/05/17 02:30:33;;;;;;;;;;;12.20;90.20;;;;;;5048819;28;20021;-67
2021/05/17 02:32:59;;;;;;;4.60;0.90;;;12.20;90.30;;;;;;5048051;28;19905;-66
2021/05/17 02:35:25;;;;;;;2.33;0.95;;;12.20;90.30;;;;;;5048136;28;20578;-67
2021/05/17 02:37:50;;;;;;;;;;;12.20;90.30;;;;;;5047129;28;20683;-67
2021/05/17 02:40:17;;;;;;;2.75;1.25;;;12.20;90.10;;;;;;5048297;28;19967;-67
2021/05/17 02:42:46;;;;;;;2.10;1.00;;;12.20;90.00;;;;;;5047660;28;20408;-67
2021/05/17 02:45:13;;;;;;;2.53;0.90;;;12.20;89.90;;;;;;5048290;28;20039;-67
2021/05/17 02:47:39;;;;;;;9.48;1.00;;;12.20;90.40;;;;;;5048047;28;20056;-67
2021/05/17 02:50:07;;;;;;;1.67;0.80;;;12.30;89.70;;;;;;5047727;28;20140;-67
2021/05/17 02:52:34;;;;;;;4.57;1.10;;;12.30;90.00;;;;;;5047890;28;20028;-66
2021/05/17 02:55:12;;;;;;;2.53;1.23;;;12.30;90.00;;;;;;5046431;28;20413;-68
2021/05/17 02:57:42;;;;;;;8.48;0.88;;;12.30;90.10;;;;;;5048005;28;20485;-67
2021/05/17 03:00:13;;;;;;;1.38;0.65;;;12.30;90.40;;;;;;5047396;28;20095;-67
2021/05/17 03:03:07;;;;;;;4.32;0.73;;;12.30;90.60;;;;;;5045887;28;20501;-68
2021/05/17 03:05:36;;;;;;;4.47;0.60;;;12.20;90.70;;;;;;5040001;28;20039;-65
2021/05/17 03:08:06;;;;;;;3.90;1.20;;;12.20;90.90;;;;;;5047836;28;20477;-68
2021/05/17 03:10:34;;;;;;;5.65;1.08;;;12.20;91.20;;;;;;5047525;28;20552;-67
2021/05/17 03:13:07;;;;;;;3.20;0.93;;;12.20;91.00;;;;;;5047680;28;20397;-66
2021/05/17 03:15:33;;;;;;;5.03;1.35;;;12.20;91.20;;;;;;5045924;28;20509;-67
2021/05/17 03:18:00;;;;;;;2.83;1.15;;;12.30;90.90;;;;;;5047476;28;20099;-67
2021/05/17 03:20:26;;;;;;;2.40;1.17;;;12.40;90.90;;;;;;5046224;28;20032;-68
2021/05/17 03:22:54;;;;;;;1.73;1.00;;;12.40;90.80;;;;;;5047167;28;20083;-67
2021/05/17 03:25:23;;;;;;;7.57;1.45;;;12.50;90.90;;;;;;5047427;28;20508;-67
2021/05/17 03:27:49;;;;;;;1.77;0.85;;;12.60;90.70;;;;;;5047060;28;20040;-67
2021/05/17 03:30:15;;;;;;;;;;;12.60;90.70;;;;;;5047892;28;20029;-66
2021/05/17 03:32:41;;;;;;;10.65;5.40;;;12.60;90.70;;;;;;5046562;28;20070;-66
2021/05/17 03:35:06;;;;;;;;;;;12.60;90.80;;;;;;5047553;28;20560;-67
2021/05/17 03:37:32;;;;;;;14.50;5.97;;;12.60;90.70;;;;;;5047282;28;19908;-66
2021/05/17 03:39:58;;;;;;;;;;;12.60;90.90;;;;;;5047298;28;20667;-65
2021/05/17 03:42:23;;;;;;;10.98;5.15;;;12.50;91.30;;;;;;5045823;28;19904;-66
2021/05/17 03:44:49;;;;;;;;;;;12.50;91.30;;;;;;5047192;28;20528;-66
2021/05/17 03:47:15;;;;;;;8.52;2.60;;;12.50;91.60;;;;;;5046820;28;19927;-67
2021/05/17 03:49:40;;;;;;;;;;;12.50;91.50;;;;;;5046999;28;20112;-67
2021/05/17 03:52:06;;;;;;;6.88;1.35;;;12.40;91.50;;;;;;5046612;28;19905;-66
2021/05/17 03:54:32;;;;;;;;;;;12.40;91.50;;;;;;5047221;28;20025;-66
2021/05/17 03:56:58;;;;;;;2.85;1.20;;;12.40;92.10;;;;;;5046805;28;19936;-67
2021/05/17 03:59:24;;;;;;;6.80;1.23;;;12.30;91.80;;;;;;5046859;28;20028;-66
2021/05/17 04:01:50;;;;;;;7.72;1.30;;;12.40;91.30;;;;;;5046727;28;20037;-67
2021/05/17 04:04:18;;;;;;;;;;;12.40;91.40;;;;;;5046311;28;20033;-67
2021/05/17 04:14:40;;;;;;;3.20;1.67;;;12.50;92.00;;;;;;5046221;28;20028;-67
2021/05/17 04:17:06;;;;;;;;;;;12.60;92.10;;;;;;5046699;28;20397;-66
2021/05/17 04:19:32;;;;;;;2.20;1.15;;;12.70;91.90;;;;;;5046329;28;19961;-66
2021/05/17 04:21:57;;;;;;;;;;;12.80;91.60;;;;;;5046463;28;20456;-67
2021/05/17 04:24:23;;;;;;;2.22;1.40;;;12.90;91.50;;;;;;5046429;28;20027;-67
2021/05/17 04:26:48;;;;;;;;;;;12.80;91.60;;;;;;5046257;28;20104;-67
2021/05/17 04:29:14;;;;;;;9.80;2.50;;;12.90;91.60;;;;;;5046529;28;19920;-67
2021/05/17 04:31:40;;;;;;;;;;;13.00;92.20;;;;;;5046575;28;20029;-67
2021/05/17 04:34:05;;;;;;;9.60;2.63;;;13.00;92.20;;;;;;5045853;28;19916;-67
2021/05/17 04:36:31;;;;;;;;;;;13.00;92.50;;;;;;5046563;28;20501;-66
2021/05/17 04:38:59;;;;;;;4.57;2.35;;;13.00;92.10;;;;;;5046197;28;20372;-66
2021/05/17 04:41:26;;;;;;;4.18;2.20;;;13.10;91.80;;;;;;5046179;28;20501;-67
2021/05/17 04:43:52;;;;;;;3.92;2.30;;;13.10;91.30;;;;;;5046145;28;20020;-66
2021/05/17 04:46:18;;;;;;;4.57;2.17;;;13.20;91.40;;;;;;5045971;28;20144;-66
2021/05/17 04:48:49;;;;;;;;;;;13.30;91.10;;;;;;5045737;28;20111;-66
2021/05/17 04:51:20;;;;;;;4.75;2.80;;;13.20;91.30;;;;;;5046100;28;19917;-66
2021/05/17 04:53:45;;;;;;;4.72;2.58;;;13.20;91.40;;;;;;5045810;28;20075;-66
2021/05/17 04:56:11;;;;;;;;;;;13.20;91.70;;;;;;5046594;28;20245;-66
2021/05/17 04:58:37;;;;;;;7.90;2.28;;;13.20;91.80;;;;;;5044297;28;19916;-67
2021/05/17 05:01:03;;;;;;;;;;;13.10;91.60;;;;;;5045830;28;20037;-66
2021/05/17 05:03:29;;;;;;;4.63;3.58;;;13.20;91.80;;;;;;5045270;28;19908;-66
2021/05/17 05:05:59;;;;;;;4.07;3.38;;;13.30;91.40;;;;;;5046019;28;20041;-67
2021/05/17 05:08:25;;;;;;;6.75;2.58;;;13.40;91.30;;;;;;5046040;28;20494;-66
2021/05/17 05:10:51;;;;;;;;;;;13.40;91.40;;;;;;5045939;28;20036;-67
2021/05/17 05:13:16;;;;;;;6.43;3.22;;;13.40;91.10;;;;;;5044416;28;19916;-67
2021/05/17 05:15:42;;;;;;;9.30;3.33;;;13.40;91.30;;;;;;5046036;28;20804;-66
2021/05/17 05:18:08;;;;;;;;;;;13.40;91.20;;;;;;5045554;28;20036;-66
2021/05/17 05:20:33;;;;;;;7.05;3.53;;;13.40;91.20;;;;;;5045803;28;19936;-65
2021/05/17 05:23:01;;;;;;;;;;;13.30;91.40;;;;;;5045675;28;20078;-66
2021/05/17 05:25:33;;;;;;;10.05;4.72;;;13.20;91.40;;;;;;5045785;28;19905;-66
2021/05/17 05:28:01;;;;;;;8.00;4.07;;;13.20;91.60;;;;;;5046186;28;20099;-65
2021/05/17 05:33:16;;;;;;;6.60;4.28;;;13.20;91.80;;;;;;5045126;28;20037;-66
2021/05/17 05:35:43;;;;;;;8.55;4.05;;;13.00;92.00;;;;;;5045780;28;20032;-67
2021/05/17 05:38:09;;;;;;;9.27;4.75;;;12.90;92.40;;;;;;5045486;28;20389;-66
2021/05/17 05:40:35;;;;;;;8.27;5.65;;;12.90;92.60;;;;;;5044667;28;20040;-65
2021/05/17 05:43:00;;;;;;;;;;;12.90;92.70;;;;;;5046055;28;20033;-66
2021/05/17 05:45:26;;;;;;;8.85;5.18;;;12.90;92.80;;;;;;5048982;28;19908;-65
2021/05/17 05:47:52;;;;;;;;;;;12.90;92.80;;;;;;5049340;28;20045;-66
2021/05/17 05:50:17;;;;;;;11.07;5.35;;;12.90;92.90;;;;;;5049257;28;19916;-67
2021/05/17 05:52:43;;;;;;;11.25;4.88;;;12.90;92.90;;;;;;5048761;28;20043;-67
2021/05/17 05:55:09;;;;;;;;;;;13.10;92.70;;;;;;5049520;28;20111;-66
2021/05/17 05:57:41;;;;;;;8.07;4.68;;;13.20;92.80;;;;;;5049216;28;20285;-67
2021/05/17 06:00:09;;;;;;;13.48;5.53;;;13.10;92.90;;;;;;5048766;28;20655;-67
2021/05/17 06:02:36;;;;;;;6.68;4.45;;;13.00;93.50;;;;;;5048596;28;20309;-67
2021/05/17 06:05:02;;;;;;;12.95;4.68;;;12.80;94.00;;;;;;5048709;28;20029;-66
2021/05/17 06:07:27;;;;;;;;;;;12.80;94.40;;;;;;5048116;28;20135;-67
2021/05/17 06:09:53;;;;;;;10.18;5.00;;;12.80;94.20;;;;;;5047440;28;19916;-67
2021/05/17 06:12:19;;;;;;;8.88;5.47;;;12.80;94.20;;;;;;5048401;28;20029;-68
2021/05/17 06:14:46;;;;;;;6.82;5.28;;;12.80;94.40;;;;;;5048660;28;20021;-67
2021/05/17 06:17:13;;;;;;;7.40;4.53;;;12.80;94.70;;;;;;5046541;28;20490;-67
2021/05/17 06:19:38;;;;;;;8.77;5.10;;;12.80;94.90;;;;;;5048777;28;20031;-67
2021/05/17 06:22:04;;;;;;;;;;;12.90;95.00;;;;;;5049198;28;20041;-68
2021/05/17 06:24:30;;;;;;;8.00;4.30;;;13.00;95.00;;;;;;5048153;28;19948;-68
2021/05/17 06:26:56;;;;;;;7.32;4.88;;;13.20;94.60;;;;;;5048496;28;20071;-67
2021/05/17 06:29:22;;;;;;;;;;;13.30;93.80;;;;;;5048738;28;20029;-67
2021/05/17 06:31:51;;;;;;;6.80;4.30;;;13.30;94.00;;;;;;5048185;28;19916;-68
2021/05/17 06:34:17;;;;;;;6.93;5.10;;;13.30;93.90;;;;;;5046974;28;20036;-67
2021/05/17 06:36:43;;;;;;;9.15;4.70;;;13.40;93.50;;;;;;5048158;28;20496;-68
2021/05/17 06:39:09;;;;;;;;;;;13.40;93.50;;;;;;5048510;28;20025;-67
2021/05/17 06:41:36;;;;;;;9.43;5.90;;;13.40;93.50;;;;;;5048171;28;19928;-67
2021/05/17 06:44:02;;;;;;;11.40;5.97;;;13.30;93.70;;;;;;5046478;28;20157;-67
2021/05/17 06:46:28;;;;;;;11.35;5.85;;;13.40;93.50;;;;;;5047427;28;20114;-66
2021/05/17 06:48:54;;;;;;;8.32;5.68;;;13.50;93.40;;;;;;5050356;28;20083;-66
2021/05/17 06:51:20;;;;;;;;;;;13.40;93.30;;;;;;5048438;28;20524;-65
2021/05/17 06:53:51;;;;;;;8.07;5.38;;;13.30;93.60;;;;;;5047967;28;19909;-66
2021/05/17 06:58:57;;;;;;;9.27;5.60;;;13.30;94.00;;;;;;5048063;28;20039;-68
2021/05/17 07:01:25;;;;;;;17.40;5.45;;;13.30;93.90;;;;;;5047731;28;20082;-68
2021/05/17 07:03:51;;;;;;;8.75;4.47;;;13.20;94.20;;;;;;5047369;28;20029;-66
2021/05/17 07:06:23;;;;;;;6.97;5.18;;;13.20;94.50;;;;;;5047855;28;20110;-67
2021/05/17 07:11:45;;;;;;;7.68;5.90;;;13.30;94.30;;;;;;5047567;28;20094;-67
2021/05/17 07:14:11;;;;;;;8.98;5.47;;;13.30;93.80;;;;;;5063738;28;20017;-67
2021/05/17 07:16:36;;;;;;;;;;;13.30;93.90;;;;;;5067220;28;20519;-65
2021/05/17 07:19:02;;;;;;;8.82;4.70;;;13.30;93.90;;;;;;5067723;28;19905;-67
2021/05/17 07:24:12;;;;;;;10.38;6.57;;;13.30;94.10;;;;;;5067470;28;20506;-67
2021/05/17 07:26:38;;;;;;;;;;;13.30;94.70;;;;;;5067690;28;20033;-67
2021/05/17 07:29:06;;;;;;;11.13;7.38;;;13.40;94.70;;;;;;5067407;28;19912;-65
2021/05/17 07:31:32;;;;;;;8.65;7.30;;;13.40;94.50;;;;;;5065327;28;20093;-65
2021/05/17 07:33:57;;;;;;;;;;;13.30;94.60;;;;;;5065885;28;20036;-66
2021/05/17 07:36:23;;;;;;;9.68;8.00;;;13.30;94.80;;;;;;5066810;28;19908;-65
2021/05/17 07:38:50;;;;;;;15.30;11.27;;;13.20;94.90;;;;;;5067257;28;20500;-68
2021/05/17 07:41:16;;;;;;;17.95;12.48;;;13.20;95.20;;;;;;5065743;28;20136;-67
2021/05/17 07:43:42;;;;;;;;;;;13.20;95.00;;;;;;5067137;28;20541;-68
2021/05/17 07:46:07;;;;;;;11.88;8.32;;;13.10;95.40;;;;;;5066545;28;19995;-67
2021/05/17 07:48:34;;;;;;;;;;;13.20;95.40;;;;;;5066931;28;20098;-66
2021/05/17 07:51:00;;;;;;;11.80;9.63;;;13.20;95.60;;;;;;5067218;28;19911;-68
2021/05/17 07:53:26;;;;;;;14.98;11.18;;;13.20;95.70;;;;;;5066343;28;20044;-67
2021/05/17 07:55:53;;;;;;;;;;;13.20;95.50;;;;;;5065802;28;20086;-66
2021/05/17 07:58:18;;;;;;;13.90;9.95;;;13.20;95.50;;;;;;5065287;28;20360;-68
2021/05/17 08:00:44;;;;;;;;;;;13.20;95.90;;;;;;5066824;28;20064;-68
2021/05/17 08:03:10;;;;;;;12.48;10.80;;;13.20;95.90;;;;;;5065060;28;20380;-67
2021/05/17 08:05:35;;;;;;;;;;;13.20;95.90;;;;;;5066450;28;20477;-68
2021/05/17 08:08:01;;;;;;;17.98;12.73;;;13.10;95.90;;;;;;5066679;28;19908;-68
2021/05/17 08:10:27;;;;;;;;;;;13.10;96.20;;;;;;5066668;28;20074;-67
2021/05/17 08:12:52;;;;;;;15.18;12.93;;;13.10;96.30;;;;;;5066846;28;19915;-67
2021/05/17 08:15:18;;;;;;;;;;;13.00;96.50;;;;;;5066978;28;20029;-68
2021/05/17 08:17:44;;;;;;;12.38;11.07;;;13.00;96.50;;;;;;5066110;28;19908;-67
2021/05/17 08:20:10;;;;;;;12.68;11.35;;;13.10;96.50;;;;;;5066161;28;20066;-67
2021/05/17 08:22:36;;;;;;;15.80;12.18;;;13.00;96.60;;;;;;5066119;28;20465;-65
2021/05/17 08:25:03;;;;;;;;;;;12.90;96.70;;;;;;5066971;28;20058;-66
2021/05/17 08:27:29;;;;;;;13.25;11.85;;;12.90;96.90;;;;;;5064857;28;19908;-67
2021/05/17 08:29:54;;;;;;;;;;;13.00;97.10;;;;;;5066603;28;20107;-68
2021/05/17 08:32:20;;;;;;;15.15;13.60;;;12.90;97.30;;;;;;5066320;28;19908;-64
2021/05/17 08:34:45;;;;;;;;;;;12.90;97.60;;;;;;5065086;28;20052;-66
2021/05/17 08:37:11;;;;;;;13.45;10.73;;;13.00;97.60;;;;;;5066183;28;19908;-67
2021/05/17 08:39:37;;;;;;;;;;;13.10;97.50;;;;;;5066720;28;20449;-66
2021/05/17 08:42:03;;;;;;;11.82;10.20;;;13.10;97.20;;;;;;5065924;28;19931;-67
2021/05/17 08:44:29;;;;;;;;;;;13.10;97.20;;;;;;5066317;28;20089;-66
2021/05/17 08:46:55;;;;;;;11.13;8.00;;;13.10;97.10;;;;;;5065706;28;19967;-67
2021/05/17 08:49:21;;;;;;;9.90;8.25;;;13.10;97.20;;;;;;5066276;28;20028;-66
2021/05/17 08:51:48;;;;;;;8.50;7.65;;;13.10;97.40;;;;;;5065779;28;20024;-67
2021/05/17 08:54:14;;;;;;;8.00;7.22;;;13.00;97.50;;;;;;5064751;28;20147;-67
2021/05/17 08:56:43;;;;;;;;;;;13.10;97.40;;;;;;5066245;28;20108;-65
2021/05/17 08:59:10;;;;;;;9.13;7.45;;;13.00;97.50;;;;;;5064960;28;19999;-66
2021/05/17 09:01:35;;;;;;;9.23;8.13;;;13.00;97.50;;;;;;5065077;28;20847;-67
2021/05/17 09:04:08;;;;;;;;;;;13.00;97.50;;;;;;5066003;28;20054;-67
2021/05/17 09:06:53;;;;;;;12.88;9.55;;;13.00;97.70;;;;;;5065448;28;19904;-66
2021/05/17 09:09:36;;;;;;;9.45;8.55;;;13.10;97.80;;;;;;5065921;28;20017;-66
2021/05/17 09:12:03;;;;;;;8.73;7.93;;;13.10;97.60;;;;;;5065039;28;20036;-67
2021/05/17 09:14:30;;;;;;;9.63;8.60;;;13.20;97.50;;;;;;5064340;28;20024;-67
2021/05/17 09:16:56;;;;;;;9.18;8.32;;;13.30;97.60;;;;;;5064702;28;20021;-66
2021/05/17 09:19:23;;;;;;;;;;;13.40;97.60;;;;;;5068327;28;20451;-65
2021/05/17 09:22:12;;;;;;;6.55;5.45;;;13.50;97.50;;;;;;5069312;28;19962;-66
2021/05/17 09:24:49;;;;;;;5.68;5.07;;;13.60;97.10;;;;;;5068983;28;20025;-66
2021/05/17 09:27:31;;;;;;;4.80;4.32;;;13.80;96.50;;;;;;5069003;28;20040;-66
2021/05/17 09:30:04;;;;;;;7.38;4.85;;;14.00;96.50;;;;;;5068731;28;20111;-65
2021/05/17 09:32:30;;;;;;;4.20;3.70;;;14.20;96.10;;;;;;5068464;28;20074;-66
2021/05/17 09:35:01;;;;;;;3.92;3.53;;;14.30;95.60;;;;;;5068111;28;20040;-66
2021/05/17 09:37:40;;;;;;;4.40;3.65;;;14.50;95.00;;;;;;5068681;28;20357;-66
2021/05/17 09:40:26;;;;;;;6.05;2.85;;;14.60;94.90;;;;;;5068453;28;20035;-65
2021/05/17 09:43:03;;;;;;;5.28;4.35;;;14.60;94.60;;;;;;5068685;28;20623;-66
2021/05/17 09:45:34;;;;;;;4.65;3.50;;;14.70;94.50;;;;;;5068191;28;20033;-64
2021/05/17 09:48:00;;;;;;;4.10;3.25;;;14.90;94.80;;;;;;5068609;28;20154;-66
2021/05/17 09:50:25;;;;;;;3.78;2.40;;;15.10;94.80;;;;;;5068720;28;20035;-66
2021/05/17 09:52:51;;;;;;;4.10;2.20;;;15.10;94.20;;;;;;5069175;28;20029;-67
2021/05/17 09:55:17;;;;;;;2.30;1.40;;;15.20;93.40;;;;;;5069223;28;20121;-64
2021/05/17 09:57:44;;;;;;;;;;;15.20;93.60;;;;;;5067756;28;20028;-66
2021/05/17 10:00:12;;;;;;;4.82;1.45;;;15.10;93.40;;;;;;5068103;28;19923;-65
2021/05/17 10:02:40;;;;;;;2.70;1.40;;;15.10;93.30;;;;;;5067443;28;20032;-66
2021/05/17 10:05:23;;;;;;;3.33;1.67;;;14.90;93.50;;;;;;5065574;28;20409;-65
2021/05/17 10:07:54;;;;;;;2.90;1.58;;;14.80;93.70;;;;;;5064535;28;20512;-65
2021/05/17 10:10:23;;;;;;;2.92;1.35;;;14.70;93.90;;;;;;5064174;28;20127;-67
2021/05/17 10:12:53;;;;;;;1.60;1.10;;;14.60;93.30;;;;;;5064862;28;20946;-64
2021/05/17 10:15:20;;;;;;;4.60;1.48;;;14.50;93.60;;;;;;5063750;28;20038;-64
2021/05/17 10:17:47;;;;;;;12.73;3.97;;;14.40;94.00;;;;;;5067637;28;20031;-65
2021/05/17 10:20:20;;;;;;;2.92;1.90;;;14.40;94.20;;;;;;5064681;28;20699;-64
2021/05/17 10:22:46;;;;;;;3.17;1.55;;;14.30;94.20;;;;;;5065205;28;20783;-65
2021/05/17 10:25:20;;;;;;;3.67;2.55;;;14.40;94.20;;;;;;5067116;28;20048;-65
2021/05/17 10:27:57;;;;;;;2.15;1.45;;;14.40;94.50;;;;;;5064389;28;20094;-63
2021/05/17 10:30:24;;;;;;;;;;;14.50;94.20;;;;;;5065268;28;20040;-66
2021/05/17 10:32:54;;;;;;;5.72;2.53;;;14.40;94.00;;;;;;5061586;28;20494;-66
2021/05/17 10:35:23;;;;;;;9.25;4.28;;;14.40;94.30;;;;;;5050846;28;20267;-66
2021/05/17 10:37:50;;;;;;;8.02;3.90;;;14.40;93.60;;;;;;5048445;28;20039;-67
2021/05/17 10:40:37;;;;;;;6.97;3.55;;;14.40;94.30;;;;;;5046513;28;20041;-66
2021/05/17 10:43:23;;;;;;;6.07;3.47;;;14.50;94.50;;;;;;5046619;28;20437;-67
2021/05/17 10:48:30;;;;;;;5.25;2.33;;;14.50;94.30;;;;;;5048347;28;20033;-66
2021/05/17 10:51:10;;;;;;;7.70;3.28;;;14.60;93.80;;;;;;5056053;28;20032;-67
2021/05/17 10:53:53;;;;;;;3.33;1.77;;;14.70;94.00;;;;;;5055973;28;20103;-67
2021/05/17 10:57:26;;;;;;;4.75;1.60;;;14.70;93.80;;;;;;5057023;28;20535;-67
2021/05/17 11:02:25;;;;;;;3.35;2.20;;;14.80;93.30;;;;;;5048940;28;20052;-68
2021/05/17 11:04:51;;;;;;;5.47;2.17;;;14.70;94.00;;;;;;5047528;28;20079;-68
2021/05/17 11:07:26;;;;;;;3.03;2.05;;;14.80;94.10;;;;;;5048267;28;20064;-67
2021/05/17 11:09:54;;;;;;;5.60;2.15;;;14.80;94.00;;;;;;5047456;28;20115;-67
2021/05/17 11:12:25;;;;;;;4.07;2.15;;;14.80;94.10;;;;;;5047727;28;20386;-68
2021/05/17 11:15:08;;;;;;;5.38;1.80;;;14.90;93.40;;;;;;5047248;28;20017;-67
2021/05/17 11:17:56;;;;;;;3.58;1.48;;;14.80;93.90;;;;;;5047152;28;20057;-67
2021/05/17 11:23:06;;;;;;;2.60;1.60;;;14.70;94.10;;;;;;5047181;28;20041;-67
2021/05/17 11:31:49;;;;;;;4.80;3.03;;;14.70;94.40;;;;;;5047128;28;20044;-67
2021/05/17 11:34:17;;;;;;;3.40;2.33;;;14.70;94.30;;;;;;5045951;28;20131;-67
2021/05/17 11:36:50;;;;;;;4.95;2.83;;;14.80;94.80;;;;;;5046780;28;20029;-67
2021/05/17 11:39:19;;;;;;;5.53;2.95;;;14.90;94.50;;;;;;5047216;28;20487;-68
2021/05/17 11:41:57;;;;;;;10.10;5.32;;;14.90;94.40;;;;;;5046634;28;20044;-68
2021/05/17 11:44:27;;;;;;;11.63;9.02;;;15.00;94.10;;;;;;5045382;28;20028;-68
2021/05/17 11:46:55;;;;;;;6.68;2.42;;;15.00;94.20;;;;;;5047059;28;20072;-67
2021/05/17 11:49:22;;;;;;;11.00;3.90;;;15.00;94.20;;;;;;5047118;28;20037;-67
2021/05/17 11:51:51;;;;;;;7.25;4.40;;;15.00;94.30;;;;;;5045537;28;20101;-68
2021/05/17 11:54:18;;;;;;;6.00;5.32;;;15.10;94.20;;;;;;5045464;28;20060;-68
2021/05/17 11:56:46;;;;;;;4.55;3.38;;;15.10;94.40;;;;;;5045594;28;20032;-70
2021/05/17 11:59:13;;;;;;;8.70;6.40;;;14.90;94.30;;;;;;5046592;28;20027;-66
2021/05/17 12:01:45;;;;;;;4.55;4.03;;;14.90;94.40;;;;;;5046614;28;20519;-66
2021/05/17 12:04:15;;;;;;;6.00;4.35;;;15.00;94.40;;;;;;5046157;28;20029;-66
2021/05/17 12:06:43;;;;;;;7.60;5.22;;;15.00;94.30;;;;;;5046584;28;20078;-67
2021/05/17 12:09:09;;;;;;;7.55;4.72;;;15.00;94.40;;;;;;5049961;28;20044;-67
2021/05/17 12:11:47;;;;;;;6.22;3.70;;;15.10;94.20;;;;;;5063615;28;20024;-68
2021/05/17 12:14:13;;;;;;;6.75;3.63;;;15.20;93.90;;;;;;5061634;28;20033;-66
2021/05/17 12:16:38;;;;;;;9.52;4.60;;;15.30;93.80;;;;;;5066588;28;20085;-67
2021/05/17 12:19:04;;;;;;;4.90;3.53;;;15.40;93.80;;;;;;5066624;28;20071;-66
2021/05/17 12:21:37;;;;;;;4.32;3.90;;;15.40;93.20;;;;;;5066070;28;20136;-66
2021/05/17 12:24:07;;;;;;;5.70;3.85;;;15.40;93.20;;;;;;5066060;28;20779;-66
2021/05/17 12:26:52;;;;;;;8.35;4.70;;;15.40;93.70;;;;;;5066241;28;20028;-66
2021/05/17 12:29:21;;;;;;;10.50;4.50;;;15.30;93.80;;;;;;5066069;28;20401;-67
2021/05/17 12:31:47;;;;;;;4.13;3.72;;;15.20;93.90;;;;;;5066017;28;20523;-67
2021/05/17 12:34:14;;;;;;;7.70;4.43;;;15.30;93.50;;;;;;5065927;28;20150;-66
2021/05/17 12:36:42;;;;;;;6.55;5.07;;;15.30;93.80;;;;;;5066196;28;20028;-66
2021/05/17 12:39:14;;;;;;;4.82;4.32;;;15.40;94.20;;;;;;5066083;28;20025;-66
2021/05/17 12:41:41;;;;;;;6.03;4.55;;;15.50;93.40;;;;;;5066144;28;20044;-68
2021/05/17 12:44:29;;;;;;;7.40;4.13;;;15.50;93.50;;;;;;5065721;28;20044;-66
2021/05/17 12:47:01;;;;;;;6.25;4.10;;;15.50;92.80;;;;;;5056287;28;20388;-67
2021/05/17 12:49:53;;;;;;;5.22;3.78;;;15.40;93.20;;;;;;5055197;28;20090;-67
2021/05/17 12:52:45;;;;;;;10.70;4.65;;;15.30;93.50;;;;;;5058195;28;20021;-68
2021/05/17 12:55:11;;;;;;;5.97;4.82;;;15.20;94.00;;;;;;5062557;28;20123;-66
2021/05/17 12:58:01;;;;;;;6.07;4.78;;;15.00;94.40;;;;;;5057729;28;20178;-67
2021/05/17 13:00:45;;;;;;;8.15;5.22;;;15.00;94.40;;;;;;5056107;28;20055;-66
2021/05/17 13:03:35;;;;;;;5.35;4.75;;;15.00;94.60;;;;;;5055408;28;20039;-67
2021/05/17 13:06:07;;;;;;;6.35;4.85;;;15.00;94.70;;;;;;5046719;28;20052;-68
2021/05/17 13:09:03;;;;;;;6.38;5.07;;;15.00;94.60;;;;;;5052396;28;20025;-67
2021/05/17 13:11:35;;;;;;;6.40;5.70;;;15.00;94.90;;;;;;5056414;28;20036;-68
2021/05/17 13:14:03;;;;;;;7.28;4.60;;;15.00;95.30;;;;;;5055103;28;20021;-68
2021/05/17 13:16:57;;;;;;;7.15;4.93;;;15.00;94.90;;;;;;5052122;28;20104;-67
2021/05/17 13:31:00;;;;;;;8.35;5.53;;;15.10;94.70;;;;;;5052537;28;20067;-67
2021/05/17 13:33:33;;;;;;;6.47;5.15;;;15.20;94.70;;;;;;5052400;28;20067;-67
2021/05/17 13:36:05;;;;;;;13.35;6.63;;;15.20;94.80;;;;;;5052056;28;20025;-66
2021/05/17 13:38:34;;;;;;;10.25;6.72;;;15.10;95.10;;;;;;5050439;28;20017;-69
2021/05/17 13:41:08;;;;;;;9.40;6.60;;;15.20;94.90;;;;;;5058766;28;20082;-67
2021/05/17 13:43:34;;;;;;;8.55;5.55;;;15.10;94.70;;;;;;5072008;28;20385;-66
2021/05/17 13:46:00;;;;;;;9.48;6.53;;;15.00;94.90;;;;;;5072011;28;20098;-66
2021/05/17 13:48:26;;;;;;;8.38;6.43;;;15.10;94.90;;;;;;5072334;28;20037;-67
2021/05/17 13:51:03;;;;;;;7.30;6.35;;;15.10;95.20;;;;;;5062015;28;20107;-67
2021/05/17 13:53:28;;;;;;;8.57;6.93;;;15.10;95.20;;;;;;5072276;28;20031;-67